Hancock, Vermont
Current Conditions -  °F | °C
As of 11:55 AM on Thursday 23 Oct 2014 (Local Time) from K6B0 Reporting Station
Moderate Rain Moderate Rain  
Wind Chill: 37°   Ceiling: 800
Heat Index: 43°   Visibility: 10mi
Dew Point: 43°   Wind: 13mph
Humidity: 100%   Direction: 360°N
Pressure: 29.92"   Gusts: 20mph
Location:  43.93°N, 72.84°W
Report Text: K6B0 231555Z AUTO 36011G17KT 10SM RA OVC008 06/06 A2992 RMK AO2 P0001 T00630063
Loading
Personal Weather Stations






























Interactive Weather Map
Tropical Storm Tracking
New forecast layout! Learn more

10-Day Weather Forecast

Advertisements
Track Severe Weather on mobile